createdAt,value
2023-10-06T00:02:22.124Z,94926.00
2023-10-06T00:04:49.258Z,94923.66
2023-10-06T00:07:18.685Z,94926.34
2023-10-06T00:09:45.469Z,94921.59
2023-10-06T00:12:14.671Z,94915.56
2023-10-06T00:14:42.058Z,94916.25
2023-10-06T00:17:19.195Z,94918.56
2023-10-06T00:19:48.021Z,94911.06
2023-10-06T00:22:17.999Z,94914.50
2023-10-06T00:24:51.321Z,94919.50
2023-10-06T00:27:24.810Z,94915.66
2023-10-06T00:29:57.553Z,94909.00
2023-10-06T00:32:28.775Z,94918.50
2023-10-06T00:35:09.564Z,94923.69
2023-10-06T00:37:40.949Z,94917.03
2023-10-06T00:40:21.306Z,94918.13
2023-10-06T00:42:58.949Z,94925.03
2023-10-06T00:45:25.740Z,94921.94
2023-10-06T00:47:56.490Z,94918.13
2023-10-06T00:50:25.211Z,94918.84
2023-10-06T00:52:52.910Z,94923.44
2023-10-06T00:55:20.822Z,94911.75
2023-10-06T00:57:54.712Z,94907.00
2023-10-06T01:00:22.419Z,94923.78
2023-10-06T01:02:49.874Z,94919.47
2023-10-06T01:05:17.957Z,94915.91
2023-10-06T01:07:47.791Z,94909.59
2023-10-06T01:10:29.538Z,94917.34
2023-10-06T01:12:58.122Z,94908.31
2023-10-06T01:15:30.143Z,94903.59
2023-10-06T01:17:59.606Z,94905.88
2023-10-06T01:20:35.448Z,94912.75
2023-10-06T01:23:02.461Z,94909.53
2023-10-06T01:25:36.013Z,94922.28
2023-10-06T01:28:06.384Z,94923.31
2023-10-06T01:30:33.067Z,94918.63
2023-10-06T01:32:59.935Z,94920.22
2023-10-06T01:35:27.927Z,94917.06
2023-10-06T01:38:00.853Z,94919.38
2023-10-06T01:40:28.519Z,94921.56
2023-10-06T01:42:55.373Z,94924.66
2023-10-06T01:45:23.015Z,94923.22
2023-10-06T01:48:10.842Z,94916.19
2023-10-06T01:50:37.510Z,94917.34
2023-10-06T01:53:07.577Z,94903.31
2023-10-06T01:55:39.627Z,94903.50
2023-10-06T01:58:08.387Z,94898.34
2023-10-06T02:00:37.078Z,94910.88
2023-10-06T02:03:13.865Z,94902.63
2023-10-06T02:05:40.573Z,94901.50
2023-10-06T02:08:08.033Z,94897.56
2023-10-06T02:10:34.798Z,94893.00
2023-10-06T02:13:01.452Z,94891.84
2023-10-06T02:15:28.116Z,94887.13
2023-10-06T02:17:54.885Z,94883.59
2023-10-06T02:20:27.263Z,94880.88
2023-10-06T02:22:56.443Z,94883.16
2023-10-06T02:25:23.175Z,94883.97
2023-10-06T02:27:51.357Z,94877.25
2023-10-06T02:30:21.161Z,94883.38
2023-10-06T02:32:47.882Z,94875.72
2023-10-06T02:35:16.112Z,94874.94
2023-10-06T02:37:46.610Z,94882.16
2023-10-06T02:40:13.797Z,94875.03
2023-10-06T02:42:53.125Z,94882.78
2023-10-06T02:45:22.838Z,94884.28
2023-10-06T02:47:50.040Z,94878.31
2023-10-06T02:50:25.882Z,94877.19
2023-10-06T02:52:56.038Z,94876.41
2023-10-06T02:55:32.189Z,94880.59
2023-10-06T02:57:59.248Z,94879.91
2023-10-06T03:00:25.920Z,94874.91
2023-10-06T03:02:57.564Z,94874.56
2023-10-06T03:05:34.791Z,94880.25
2023-10-06T03:08:02.349Z,94878.25
2023-10-06T03:10:36.373Z,94875.47
2023-10-06T03:13:05.011Z,94876.06
2023-10-06T03:15:39.660Z,94874.41
2023-10-06T03:18:07.061Z,94875.56
2023-10-06T03:20:49.182Z,94873.56
2023-10-06T03:23:49.342Z,94866.13
2023-10-06T03:26:35.403Z,94862.69
2023-10-06T03:29:04.279Z,94860.69
2023-10-06T03:31:46.033Z,94861.81
2023-10-06T03:34:17.638Z,94868.75
2023-10-06T03:36:54.202Z,94863.84
2023-10-06T03:39:32.095Z,94861.91
2023-10-06T03:42:02.092Z,94862.69
2023-10-06T03:44:31.184Z,94865.84
2023-10-06T03:47:02.190Z,94869.53
2023-10-06T03:49:34.220Z,94864.81
2023-10-06T03:52:00.954Z,94870.59
2023-10-06T03:54:27.620Z,94865.94
2023-10-06T03:56:55.079Z,94862.00
2023-10-06T03:59:23.978Z,94860.06
2023-10-06T04:01:52.684Z,94855.69
2023-10-06T04:04:23.797Z,94860.31
2023-10-06T04:06:51.179Z,94856.47
2023-10-06T04:09:28.217Z,94857.47
2023-10-06T04:11:58.057Z,94859.84
2023-10-06T04:14:24.700Z,94861.03
2023-10-06T04:16:54.561Z,94861.47
2023-10-06T04:19:21.266Z,94863.75
2023-10-06T04:21:49.340Z,94864.47
2023-10-06T04:24:16.107Z,94860.19
2023-10-06T04:26:42.857Z,94861.31
2023-10-06T04:29:10.481Z,94865.97
2023-10-06T04:31:38.098Z,94870.28
2023-10-06T04:34:05.280Z,94864.41
2023-10-06T04:36:33.122Z,94862.66
2023-10-06T04:38:59.946Z,94869.84
2023-10-06T04:41:27.046Z,94869.84
2023-10-06T04:43:53.904Z,94876.72
2023-10-06T04:46:20.646Z,94863.53
2023-10-06T04:48:49.438Z,94867.72
2023-10-06T04:51:16.276Z,94857.66
2023-10-06T04:53:46.410Z,94858.44
2023-10-06T04:56:13.392Z,94856.84
2023-10-06T04:58:41.193Z,94857.13
2023-10-06T05:01:09.260Z,94852.47
2023-10-06T05:03:46.244Z,94856.25
2023-10-06T05:06:17.152Z,94841.50
2023-10-06T05:08:53.574Z,94848.00
2023-10-06T05:11:21.712Z,94851.16
2023-10-06T05:13:55.315Z,94848.78
2023-10-06T05:16:24.547Z,94855.81
2023-10-06T05:18:52.347Z,94851.50
2023-10-06T05:21:20.524Z,94860.09
2023-10-06T05:23:47.772Z,94855.81
2023-10-06T05:26:16.545Z,94870.88
2023-10-06T05:28:44.177Z,94862.00
2023-10-06T05:31:12.185Z,94861.03
2023-10-06T05:33:41.774Z,94857.25
2023-10-06T05:36:15.072Z,94863.03
2023-10-06T05:38:46.452Z,94861.97
2023-10-06T05:41:14.031Z,94870.56
2023-10-06T05:43:41.741Z,94869.09
2023-10-06T05:46:10.563Z,94872.69
2023-10-06T05:48:37.773Z,94874.44
2023-10-06T05:51:10.295Z,94887.94
2023-10-06T05:53:44.299Z,94873.22
2023-10-06T05:56:11.751Z,94870.09
2023-10-06T05:58:39.140Z,94866.41
2023-10-06T06:01:12.512Z,94867.91
2023-10-06T06:03:46.111Z,94870.50
2023-10-06T06:06:22.813Z,94871.38
2023-10-06T06:08:50.102Z,94862.59
2023-10-06T06:11:17.624Z,94879.59
2023-10-06T06:13:46.991Z,94882.19
2023-10-06T06:16:17.374Z,94885.63
2023-10-06T06:18:45.449Z,94886.84
2023-10-06T06:21:13.700Z,94874.09
2023-10-06T06:23:40.799Z,94884.09
2023-10-06T06:26:08.505Z,94882.03
2023-10-06T06:28:37.700Z,94893.78
2023-10-06T06:31:06.257Z,94894.16
2023-10-06T06:33:34.201Z,94903.50
2023-10-06T06:36:01.886Z,94903.81
2023-10-06T06:38:29.363Z,94906.53
2023-10-06T06:43:26.787Z,94908.69
2023-10-06T06:45:54.830Z,94908.44
2023-10-06T06:48:22.044Z,94911.31
2023-10-06T06:50:49.915Z,94915.91
2023-10-06T06:53:19.917Z,94907.59
2023-10-06T06:55:47.326Z,94917.50
2023-10-06T06:58:17.702Z,94907.91
2023-10-06T07:00:49.030Z,94908.94
2023-10-06T07:03:16.485Z,94899.03
2023-10-06T07:05:44.214Z,94900.28
2023-10-06T07:08:12.801Z,94897.00
2023-10-06T07:10:47.527Z,94892.06
2023-10-06T07:13:14.875Z,94892.13
2023-10-06T07:15:42.810Z,94891.66
2023-10-06T07:18:11.607Z,94890.91
2023-10-06T07:20:38.638Z,94904.94
2023-10-06T07:23:05.760Z,94896.06
2023-10-06T07:25:32.660Z,94890.25
2023-10-06T07:28:00.423Z,94883.13
2023-10-06T07:30:30.471Z,94877.34
2023-10-06T07:32:57.592Z,94885.28
2023-10-06T07:35:32.167Z,94885.88
2023-10-06T07:37:59.513Z,94885.72
2023-10-06T07:40:29.060Z,94884.34
2023-10-06T07:42:59.887Z,94879.69
2023-10-06T07:45:31.556Z,94888.47
2023-10-06T07:47:58.668Z,94886.09
2023-10-06T07:50:30.112Z,94889.91
2023-10-06T07:52:58.101Z,94883.22
2023-10-06T07:55:24.880Z,94877.72
2023-10-06T07:57:52.412Z,94881.88
2023-10-06T08:00:30.893Z,94886.69
2023-10-06T08:03:00.136Z,94886.50
2023-10-06T08:05:29.551Z,94876.41
2023-10-06T08:08:00.940Z,94866.09
2023-10-06T08:10:31.215Z,94863.34
2023-10-06T08:13:02.042Z,94860.88
2023-10-06T08:15:29.394Z,94855.41
2023-10-06T08:17:57.303Z,94865.34
2023-10-06T08:20:28.699Z,94864.34
2023-10-06T08:22:58.005Z,94856.47
2023-10-06T08:25:26.618Z,94866.94
2023-10-06T08:27:54.138Z,94869.50
2023-10-06T08:30:21.557Z,94873.13
2023-10-06T08:32:51.172Z,94873.44
2023-10-06T08:35:18.127Z,94873.06
2023-10-06T08:37:46.453Z,94864.41
2023-10-06T08:40:18.301Z,94872.13
2023-10-06T08:43:01.043Z,94868.38
2023-10-06T08:45:29.933Z,94865.50
2023-10-06T08:48:03.835Z,94864.69
2023-10-06T08:50:34.072Z,94866.06
2023-10-06T08:53:05.917Z,94869.25
2023-10-06T08:55:33.575Z,94867.13
2023-10-06T08:58:03.548Z,94866.81
2023-10-06T09:00:35.689Z,94856.88
2023-10-06T09:03:09.433Z,94859.59
2023-10-06T09:05:41.189Z,94855.25
2023-10-06T09:08:10.362Z,94850.50
2023-10-06T09:10:41.895Z,94852.75
2023-10-06T09:13:14.085Z,94851.41
2023-10-06T09:15:42.173Z,94843.75
2023-10-06T09:18:21.530Z,94838.25
2023-10-06T09:20:50.101Z,94840.16
2023-10-06T09:23:41.710Z,94834.88
2023-10-06T09:26:12.850Z,94836.59
2023-10-06T09:28:53.861Z,94848.47
2023-10-06T09:31:45.700Z,94842.31
2023-10-06T09:34:13.457Z,94844.38
2023-10-06T09:36:45.769Z,94837.94
2023-10-06T09:39:16.878Z,94834.13
2023-10-06T09:41:43.720Z,94834.13
2023-10-06T09:44:13.662Z,94837.78
2023-10-06T09:46:44.709Z,94838.78
2023-10-06T09:49:19.466Z,94841.03
2023-10-06T09:51:47.358Z,94839.72
2023-10-06T09:54:15.748Z,94830.53
2023-10-06T09:56:43.257Z,94832.53
2023-10-06T09:59:13.924Z,94825.72
2023-10-06T10:01:46.987Z,94824.69
2023-10-06T10:04:15.809Z,94824.16
2023-10-06T10:06:46.532Z,94830.09
2023-10-06T10:09:18.412Z,94822.28
2023-10-06T10:12:02.396Z,94830.25
2023-10-06T10:14:53.624Z,94821.94
2023-10-06T10:17:38.478Z,94819.44
2023-10-06T10:20:10.470Z,94813.97
2023-10-06T10:22:38.788Z,94819.25
2023-10-06T10:28:20.554Z,94820.00
2023-10-06T10:30:52.157Z,94817.28
2023-10-06T10:33:23.000Z,94813.06
2023-10-06T10:36:15.770Z,94804.97
2023-10-06T10:38:43.466Z,94804.50
2023-10-06T10:41:11.627Z,94803.16
2023-10-06T10:46:43.411Z,94789.75
2023-10-06T10:49:11.637Z,94792.25
2023-10-06T10:52:03.533Z,94798.25
2023-10-06T10:54:33.684Z,94788.75
2023-10-06T10:57:15.022Z,94789.19
2023-10-06T11:00:01.403Z,94789.16
2023-10-06T11:02:43.126Z,94781.34
2023-10-06T11:05:11.159Z,94777.56
2023-10-06T11:07:37.970Z,94773.34
2023-10-06T11:10:05.218Z,94763.00
2023-10-06T11:12:32.078Z,94764.44
2023-10-06T11:15:17.639Z,94765.72
2023-10-06T11:17:45.470Z,94756.25
2023-10-06T11:20:28.582Z,94754.88
2023-10-06T11:23:00.875Z,94757.16
2023-10-06T11:25:29.725Z,94745.00
2023-10-06T11:28:05.831Z,94745.59
2023-10-06T11:30:34.483Z,94741.38
2023-10-06T11:33:03.624Z,94752.03
2023-10-06T11:35:32.601Z,94737.38
2023-10-06T11:38:00.070Z,94741.38
2023-10-06T11:40:27.562Z,94738.06
2023-10-06T11:42:54.914Z,94741.34
2023-10-06T11:45:25.990Z,94737.84
2023-10-06T11:47:54.209Z,94732.88
2023-10-06T11:50:26.069Z,94736.56
2023-10-06T11:52:54.036Z,94732.50
2023-10-06T11:55:32.134Z,94726.78
2023-10-06T11:58:02.390Z,94724.53
2023-10-06T12:00:37.107Z,94720.91
2023-10-06T12:03:04.439Z,94724.63
2023-10-06T12:05:31.619Z,94720.47
2023-10-06T12:08:05.695Z,94725.41
2023-10-06T12:10:35.887Z,94718.16
2023-10-06T12:13:06.401Z,94719.66
2023-10-06T12:15:33.268Z,94714.81
2023-10-06T12:18:01.268Z,94713.91
2023-10-06T12:20:28.736Z,94719.22
2023-10-06T12:22:55.976Z,94714.16
2023-10-06T12:25:24.542Z,94718.09
2023-10-06T12:27:51.523Z,94707.25
2023-10-06T12:30:19.094Z,94709.16
2023-10-06T12:32:49.328Z,94701.19
2023-10-06T12:35:19.659Z,94695.91
2023-10-06T12:37:48.008Z,94702.28
2023-10-06T12:40:16.146Z,94699.41
2023-10-06T12:42:44.311Z,94703.81
2023-10-06T12:45:18.715Z,94694.69
2023-10-06T12:47:47.405Z,94696.34
2023-10-06T12:50:18.821Z,94701.31
2023-10-06T12:52:53.741Z,94696.19
2023-10-06T12:55:25.913Z,94694.81
2023-10-06T12:57:55.080Z,94695.06
2023-10-06T13:00:22.040Z,94689.09
2023-10-06T13:02:49.793Z,94693.50
2023-10-06T13:05:23.932Z,94691.69
2023-10-06T13:07:52.717Z,94690.63
2023-10-06T13:10:23.953Z,94694.88
2023-10-06T13:12:51.687Z,94686.31
2023-10-06T13:15:19.879Z,94685.06
2023-10-06T13:17:49.251Z,94685.97
2023-10-06T13:20:17.447Z,94674.75
2023-10-06T13:22:46.311Z,94684.59
2023-10-06T13:25:13.499Z,94678.50
2023-10-06T13:27:42.674Z,94682.41
2023-10-06T13:30:15.996Z,94670.94
2023-10-06T13:32:43.662Z,94668.44
2023-10-06T13:35:17.331Z,94673.38
2023-10-06T13:37:45.482Z,94666.50
2023-10-06T13:40:14.023Z,94667.25
2023-10-06T13:42:46.900Z,94671.91
2023-10-06T13:45:16.559Z,94666.34
2023-10-06T13:47:46.107Z,94665.53
2023-10-06T13:50:15.658Z,94665.25
2023-10-06T13:52:43.882Z,94668.13
2023-10-06T13:55:12.099Z,94662.75
2023-10-06T13:57:40.772Z,94662.03
2023-10-06T14:00:14.502Z,94662.16
2023-10-06T14:02:42.787Z,94652.53
2023-10-06T14:05:10.773Z,94653.84
2023-10-06T14:07:38.941Z,94658.44
2023-10-06T14:10:13.763Z,94659.66
2023-10-06T14:12:43.999Z,94664.13
2023-10-06T14:15:23.456Z,94660.63
2023-10-06T14:17:53.843Z,94655.09
2023-10-06T14:20:29.152Z,94651.25
2023-10-06T14:22:56.591Z,94659.66
2023-10-06T14:25:27.547Z,94651.28
2023-10-06T14:27:57.463Z,94664.63
2023-10-06T14:30:26.817Z,94662.34
2023-10-06T14:33:09.014Z,94659.53
2023-10-06T14:36:10.980Z,94660.69
2023-10-06T14:38:43.991Z,94665.00
2023-10-06T14:41:20.953Z,94662.22
2023-10-06T14:44:10.712Z,94664.38
2023-10-06T14:46:39.467Z,94659.53
2023-10-06T14:49:14.490Z,94659.34
2023-10-06T14:51:43.024Z,94655.16
2023-10-06T14:54:12.166Z,94656.19
2023-10-06T14:56:39.735Z,94658.09
2023-10-06T14:59:09.841Z,94655.25
2023-10-06T15:01:41.244Z,94651.69
2023-10-06T15:04:28.188Z,94651.81
2023-10-06T15:06:54.879Z,94652.94
2023-10-06T15:09:24.317Z,94656.75
2023-10-06T15:11:53.864Z,94650.41
2023-10-06T15:14:26.300Z,94657.56
2023-10-06T15:16:54.687Z,94650.47
2023-10-06T15:19:26.167Z,94655.13
2023-10-06T15:21:56.080Z,94649.53
2023-10-06T15:24:23.281Z,94663.69
2023-10-06T15:26:51.192Z,94667.59
2023-10-06T15:29:22.456Z,94658.69
2023-10-06T15:31:50.226Z,94655.59
2023-10-06T15:34:18.586Z,94656.38
2023-10-06T15:36:45.385Z,94650.19
2023-10-06T15:39:23.766Z,94653.09
2023-10-06T15:41:51.455Z,94652.59
2023-10-06T15:44:19.850Z,94659.59
2023-10-06T15:46:47.321Z,94664.72
2023-10-06T15:49:18.274Z,94662.00
2023-10-06T15:51:48.431Z,94659.81
2023-10-06T15:54:16.934Z,94676.50
2023-10-06T15:56:44.657Z,94676.94
2023-10-06T15:59:15.681Z,94671.06
2023-10-06T16:01:44.514Z,94679.09
2023-10-06T16:04:13.617Z,94678.34
2023-10-06T16:06:42.837Z,94676.03
2023-10-06T16:09:10.896Z,94666.94
2023-10-06T16:11:41.301Z,94667.63
2023-10-06T16:14:08.378Z,94665.44
2023-10-06T16:16:36.035Z,94674.00
2023-10-06T16:19:07.040Z,94680.34
2023-10-06T16:21:34.419Z,94678.25
2023-10-06T16:24:04.767Z,94678.31
2023-10-06T16:26:31.644Z,94673.41
2023-10-06T16:29:01.661Z,94681.59
2023-10-06T16:31:29.080Z,94679.13
2023-10-06T16:33:56.377Z,94677.69
2023-10-06T16:36:23.830Z,94686.88
2023-10-06T16:38:52.003Z,94686.31
2023-10-06T16:41:24.398Z,94695.69
2023-10-06T16:43:56.809Z,94696.72
2023-10-06T16:46:24.224Z,94700.59
2023-10-06T16:48:51.158Z,94702.94
2023-10-06T16:51:21.356Z,94700.06
2023-10-06T16:53:49.799Z,94705.94
2023-10-06T16:56:17.217Z,94705.94
2023-10-06T16:58:44.125Z,94702.47
2023-10-06T17:01:11.002Z,94715.97
2023-10-06T17:03:38.539Z,94723.22
2023-10-06T17:06:08.533Z,94731.28
2023-10-06T17:08:36.214Z,94726.66
2023-10-06T17:11:13.382Z,94722.81
2023-10-06T17:13:40.216Z,94728.22
2023-10-06T17:16:06.915Z,94730.31
2023-10-06T17:18:37.618Z,94742.00
2023-10-06T17:21:08.207Z,94735.22
2023-10-06T17:23:35.337Z,94740.84
2023-10-06T17:26:03.133Z,94749.78
2023-10-06T17:28:31.024Z,94754.09
2023-10-06T17:31:01.823Z,94754.25
2023-10-06T17:33:29.961Z,94759.50
2023-10-06T17:35:58.002Z,94765.91
2023-10-06T17:38:25.289Z,94756.59
2023-10-06T17:40:57.241Z,94762.16
2023-10-06T17:43:24.690Z,94767.75
2023-10-06T17:45:52.574Z,94760.75
2023-10-06T17:48:19.869Z,94757.22
2023-10-06T17:50:49.514Z,94757.72
2023-10-06T17:53:16.766Z,94755.03
2023-10-06T17:55:52.263Z,94757.22
2023-10-06T17:58:19.084Z,94762.41
2023-10-06T18:00:45.970Z,94758.56
2023-10-06T18:03:12.930Z,94763.78
2023-10-06T18:05:44.174Z,94757.59
2023-10-06T18:08:10.857Z,94775.34
2023-10-06T18:10:37.580Z,94764.84
2023-10-06T18:13:04.524Z,94768.09
2023-10-06T18:15:33.392Z,94765.94
2023-10-06T18:18:00.471Z,94773.81
2023-10-06T18:20:27.180Z,94775.50
2023-10-06T18:22:54.792Z,94774.78
2023-10-06T18:25:21.731Z,94790.19
2023-10-06T18:27:48.461Z,94786.69
2023-10-06T18:30:17.147Z,94787.53
2023-10-06T18:32:43.865Z,94788.78
2023-10-06T18:35:10.570Z,94790.78
2023-10-06T18:37:38.788Z,94786.16
2023-10-06T18:40:07.043Z,94785.44
2023-10-06T18:42:34.000Z,94791.41
2023-10-06T18:45:00.715Z,94796.56
2023-10-06T18:47:28.731Z,94801.31
2023-10-06T18:49:55.533Z,94798.22
2023-10-06T18:52:22.922Z,94805.66
2023-10-06T18:54:49.606Z,94804.50
2023-10-06T18:57:16.346Z,94804.13
2023-10-06T18:59:43.106Z,94796.34
2023-10-06T19:02:10.504Z,94795.97
2023-10-06T19:04:37.299Z,94806.25
2023-10-06T19:07:04.013Z,94806.25
2023-10-06T19:09:32.206Z,94808.63
2023-10-06T19:11:59.210Z,94802.38
2023-10-06T19:14:25.968Z,94809.94
2023-10-06T19:16:53.606Z,94809.13
2023-10-06T19:19:20.431Z,94800.53
2023-10-06T19:21:47.317Z,94803.28
2023-10-06T19:24:14.638Z,94797.00
2023-10-06T19:26:41.493Z,94805.66
2023-10-06T19:29:08.815Z,94805.25
2023-10-06T19:31:36.503Z,94812.31
2023-10-06T19:34:03.374Z,94820.59
2023-10-06T19:36:35.108Z,94810.78
2023-10-06T19:39:05.391Z,94816.28
2023-10-06T19:41:33.644Z,94812.75
2023-10-06T19:44:00.438Z,94816.66
2023-10-06T19:46:28.053Z,94826.44
2023-10-06T19:48:55.259Z,94815.06
2023-10-06T19:51:22.691Z,94817.44
2023-10-06T19:53:50.296Z,94818.19
2023-10-06T19:56:18.097Z,94818.56
2023-10-06T19:58:45.702Z,94819.72
2023-10-06T20:01:13.698Z,94817.75
2023-10-06T20:03:42.076Z,94821.28
2023-10-06T20:06:09.078Z,94822.00
2023-10-06T20:08:35.899Z,94824.38
2023-10-06T20:11:02.777Z,94819.25
2023-10-06T20:13:30.138Z,94823.91
2023-10-06T20:15:57.747Z,94819.22
2023-10-06T20:18:24.823Z,94833.28
2023-10-06T20:20:53.981Z,94823.06
2023-10-06T20:23:21.930Z,94829.69
2023-10-06T20:25:48.777Z,94819.88
2023-10-06T20:28:16.090Z,94826.91
2023-10-06T20:30:43.069Z,94822.53
2023-10-06T20:33:10.058Z,94820.94
2023-10-06T20:35:36.983Z,94821.72
2023-10-06T20:38:04.635Z,94819.38
2023-10-06T20:40:33.849Z,94824.78
2023-10-06T20:43:08.491Z,94820.88
2023-10-06T20:45:35.332Z,94819.66
2023-10-06T20:48:07.185Z,94819.63
2023-10-06T20:50:40.257Z,94823.50
2023-10-06T20:53:08.670Z,94822.69
2023-10-06T20:55:36.088Z,94822.25
2023-10-06T20:58:03.365Z,94826.59
2023-10-06T21:00:30.972Z,94820.69
2023-10-06T21:02:58.873Z,94823.78
2023-10-06T21:05:26.299Z,94825.69
2023-10-06T21:07:53.505Z,94826.50
2023-10-06T21:10:21.502Z,94831.88
2023-10-06T21:12:48.345Z,94831.47
2023-10-06T21:15:15.867Z,94826.72
2023-10-06T21:17:43.701Z,94835.25
2023-10-06T21:20:13.457Z,94830.53
2023-10-06T21:22:41.273Z,94829.69
2023-10-06T21:25:15.110Z,94827.28
2023-10-06T21:27:42.335Z,94832.31
2023-10-06T21:30:09.417Z,94836.56
2023-10-06T21:32:37.608Z,94834.59
2023-10-06T21:35:07.811Z,94836.16
2023-10-06T21:37:34.933Z,94838.75
2023-10-06T21:40:02.667Z,94841.47
2023-10-06T21:42:29.795Z,94828.97
2023-10-06T21:44:56.803Z,94829.28
2023-10-06T21:47:24.294Z,94833.50
2023-10-06T21:49:51.182Z,94841.25
2023-10-06T21:52:18.157Z,94843.16
2023-10-06T21:54:44.952Z,94843.50
2023-10-06T21:57:14.505Z,94846.94
2023-10-06T21:59:44.402Z,94844.94
2023-10-06T22:02:11.782Z,94845.25
2023-10-06T22:04:38.966Z,94840.16
2023-10-06T22:07:06.519Z,94846.72
2023-10-06T22:09:34.761Z,94840.38
2023-10-06T22:12:01.864Z,94833.31
2023-10-06T22:14:36.229Z,94833.69
2023-10-06T22:17:07.852Z,94837.09
2023-10-06T22:19:36.564Z,94831.69
2023-10-06T22:22:03.639Z,94841.28
2023-10-06T22:24:30.429Z,94838.84
2023-10-06T22:26:58.755Z,94840.38
2023-10-06T22:29:26.086Z,94830.56
2023-10-06T22:31:54.997Z,94834.09
2023-10-06T22:34:23.378Z,94834.41
2023-10-06T22:36:52.752Z,94841.69
2023-10-06T22:39:21.337Z,94835.44
2023-10-06T22:41:48.136Z,94836.56
2023-10-06T22:44:14.893Z,94840.41
2023-10-06T22:46:42.470Z,94827.06
2023-10-06T22:49:09.554Z,94827.00
2023-10-06T22:51:36.297Z,94834.00
2023-10-06T22:54:03.145Z,94833.94
2023-10-06T22:56:29.863Z,94835.25
2023-10-06T22:58:56.549Z,94825.94
2023-10-06T23:01:24.022Z,94823.94
2023-10-06T23:03:50.941Z,94825.38
2023-10-06T23:06:18.655Z,94819.78
2023-10-06T23:08:45.453Z,94809.94
2023-10-06T23:11:12.213Z,94816.91
2023-10-06T23:13:40.639Z,94823.91
2023-10-06T23:16:07.913Z,94824.75
2023-10-06T23:18:40.746Z,94833.34
2023-10-06T23:21:08.442Z,94825.09
2023-10-06T23:23:38.454Z,94822.84
2023-10-06T23:26:09.747Z,94811.13
2023-10-06T23:28:40.592Z,94816.56
2023-10-06T23:31:10.261Z,94817.81
2023-10-06T23:33:38.106Z,94821.50
2023-10-06T23:36:05.967Z,94827.16
2023-10-06T23:38:32.698Z,94815.78
2023-10-06T23:41:02.013Z,94818.13
2023-10-06T23:43:31.323Z,94818.44
2023-10-06T23:45:58.720Z,94819.94
2023-10-06T23:48:29.567Z,94818.78
2023-10-06T23:51:00.299Z,94820.81
2023-10-06T23:53:29.944Z,94812.25
2023-10-06T23:56:01.251Z,94812.63
2023-10-06T23:58:33.587Z,94808.69
